KBML/BML METAR and TAF weather

Enter ICAO airport designator
Station Type Date Time Source
KBML METAR 2022/12/08 13:41 UTC NOAA

KBML 081341Z AUTO 00000KT 10SM SCT014 BKN020 OVC034 03/01 A3014 RMK AO2 T00330006


Station Type Date Time Source
KBML Decoded METAR 2022/12/08 13:41 UTC NOAA

BERLIN MUNICIPAL AIRPORT, NH, United States (KBML) 44-35N 71-11W 345M
Dec 08, 2022 - 08:41 AM EST / 2022.12.08 1341 UTC
Wind: Calm:0
Visibility: 10 mile(s):0
Sky conditions: overcast
Temperature: 37.9 F (3.3 C)
Dew Point: 33.1 F (0.6 C)
Relative Humidity: 82%
Pressure (altimeter): 30.14 in. Hg (1020 hPa)
ob: KBML 081341Z AUTO 00000KT 10SM SCT014 BKN020 OVC034 03/01 A3014 RMK AO2 T00330006
cycle: 13

Station Type Date Time Source
KBML TAF UTC NOAA

Error!

Example: see airport list